sensor_id;sensor_type;location;lat;lon;timestamp;temperature;humidity
16118;DHT22;8163;50.118;5.342;2022-07-29T00:00:22;18.60;64.80
16118;DHT22;8163;50.118;5.342;2022-07-29T00:02:49;18.60;64.80
16118;DHT22;8163;50.118;5.342;2022-07-29T00:05:16;18.60;64.90
16118;DHT22;8163;50.118;5.342;2022-07-29T00:07:43;18.60;65.00
16118;DHT22;8163;50.118;5.342;2022-07-29T00:10:12;18.60;65.00
16118;DHT22;8163;50.118;5.342;2022-07-29T00:12:40;18.60;65.10
16118;DHT22;8163;50.118;5.342;2022-07-29T00:15:08;18.50;65.20
16118;DHT22;8163;50.118;5.342;2022-07-29T00:17:35;18.50;65.50
16118;DHT22;8163;50.118;5.342;2022-07-29T00:20:02;18.50;65.60
16118;DHT22;8163;50.118;5.342;2022-07-29T00:22:29;18.50;65.70
16118;DHT22;8163;50.118;5.342;2022-07-29T00:24:56;18.50;65.90
16118;DHT22;8163;50.118;5.342;2022-07-29T00:27:24;18.50;65.90
16118;DHT22;8163;50.118;5.342;2022-07-29T00:29:51;18.40;65.90
16118;DHT22;8163;50.118;5.342;2022-07-29T00:32:18;18.40;66.10
16118;DHT22;8163;50.118;5.342;2022-07-29T00:34:45;18.30;66.20
16118;DHT22;8163;50.118;5.342;2022-07-29T00:37:29;18.30;66.40
16118;DHT22;8163;50.118;5.342;2022-07-29T00:39:56;18.20;66.50
16118;DHT22;8163;50.118;5.342;2022-07-29T00:42:24;18.20;66.50
16118;DHT22;8163;50.118;5.342;2022-07-29T00:44:51;18.20;66.80
16118;DHT22;8163;50.118;5.342;2022-07-29T00:47:18;18.20;67.00
16118;DHT22;8163;50.118;5.342;2022-07-29T00:49:45;18.10;67.10
16118;DHT22;8163;50.118;5.342;2022-07-29T00:52:13;18.10;67.30
16118;DHT22;8163;50.118;5.342;2022-07-29T00:54:40;18.10;67.40
16118;DHT22;8163;50.118;5.342;2022-07-29T00:57:07;18.10;67.50
16118;DHT22;8163;50.118;5.342;2022-07-29T00:59:36;18.10;67.50
16118;DHT22;8163;50.118;5.342;2022-07-29T01:02:03;18.00;67.50
16118;DHT22;8163;50.118;5.342;2022-07-29T01:04:31;18.00;67.40
16118;DHT22;8163;50.118;5.342;2022-07-29T01:06:59;18.00;67.50
16118;DHT22;8163;50.118;5.342;2022-07-29T01:09:28;18.00;67.40
16118;DHT22;8163;50.118;5.342;2022-07-29T01:11:55;18.00;67.40
16118;DHT22;8163;50.118;5.342;2022-07-29T01:14:22;18.00;67.40
16118;DHT22;8163;50.118;5.342;2022-07-29T01:16:54;18.00;67.40
16118;DHT22;8163;50.118;5.342;2022-07-29T01:19:37;18.00;67.60
16118;DHT22;8163;50.118;5.342;2022-07-29T01:22:18;18.00;67.80
16118;DHT22;8163;50.118;5.342;2022-07-29T01:27:51;17.90;67.60
16118;DHT22;8163;50.118;5.342;2022-07-29T01:30:26;17.80;67.60
16118;DHT22;8163;50.118;5.342;2022-07-29T01:32:57;17.80;67.60
16118;DHT22;8163;50.118;5.342;2022-07-29T01:35:28;17.80;67.90
16118;DHT22;8163;50.118;5.342;2022-07-29T01:38:04;17.80;68.00
16118;DHT22;8163;50.118;5.342;2022-07-29T01:40:36;17.70;68.20
16118;DHT22;8163;50.118;5.342;2022-07-29T01:43:11;17.70;68.20
16118;DHT22;8163;50.118;5.342;2022-07-29T01:45:43;17.70;68.30
16118;DHT22;8163;50.118;5.342;2022-07-29T01:48:15;17.70;68.40
16118;DHT22;8163;50.118;5.342;2022-07-29T01:50:47;17.60;68.50
16118;DHT22;8163;50.118;5.342;2022-07-29T01:53:21;17.60;68.60
16118;DHT22;8163;50.118;5.342;2022-07-29T01:55:51;17.60;68.90
16118;DHT22;8163;50.118;5.342;2022-07-29T01:58:19;17.60;68.90
16118;DHT22;8163;50.118;5.342;2022-07-29T02:00:49;17.60;69.10
16118;DHT22;8163;50.118;5.342;2022-07-29T02:03:17;17.50;69.10
16118;DHT22;8163;50.118;5.342;2022-07-29T02:05:48;17.50;69.30
16118;DHT22;8163;50.118;5.342;2022-07-29T02:08:18;17.50;69.40
16118;DHT22;8163;50.118;5.342;2022-07-29T02:10:46;17.50;69.30
16118;DHT22;8163;50.118;5.342;2022-07-29T02:13:17;17.50;69.40
16118;DHT22;8163;50.118;5.342;2022-07-29T02:15:45;17.50;69.50
16118;DHT22;8163;50.118;5.342;2022-07-29T02:18:16;17.50;69.50
16118;DHT22;8163;50.118;5.342;2022-07-29T02:20:45;17.40;69.40
16118;DHT22;8163;50.118;5.342;2022-07-29T02:23:15;17.40;69.50
16118;DHT22;8163;50.118;5.342;2022-07-29T02:25:46;17.40;69.60
16118;DHT22;8163;50.118;5.342;2022-07-29T02:28:15;17.30;69.50
16118;DHT22;8163;50.118;5.342;2022-07-29T02:30:43;17.30;69.50
16118;DHT22;8163;50.118;5.342;2022-07-29T02:33:15;17.30;69.70
16118;DHT22;8163;50.118;5.342;2022-07-29T02:35:46;17.20;69.70
16118;DHT22;8163;50.118;5.342;2022-07-29T02:38:15;17.20;69.80
16118;DHT22;8163;50.118;5.342;2022-07-29T02:41:03;17.20;69.90
16118;DHT22;8163;50.118;5.342;2022-07-29T02:43:31;17.10;69.90
16118;DHT22;8163;50.118;5.342;2022-07-29T02:46:00;17.10;70.10
16118;DHT22;8163;50.118;5.342;2022-07-29T02:48:36;17.10;70.10
16118;DHT22;8163;50.118;5.342;2022-07-29T02:51:08;17.10;70.10
16118;DHT22;8163;50.118;5.342;2022-07-29T02:53:38;17.00;70.10
16118;DHT22;8163;50.118;5.342;2022-07-29T02:56:12;17.00;70.30
16118;DHT22;8163;50.118;5.342;2022-07-29T02:58:42;16.90;70.30
16118;DHT22;8163;50.118;5.342;2022-07-29T03:01:15;16.90;70.50
16118;DHT22;8163;50.118;5.342;2022-07-29T03:03:45;16.90;70.60
16118;DHT22;8163;50.118;5.342;2022-07-29T03:06:15;16.90;70.70
16118;DHT22;8163;50.118;5.342;2022-07-29T03:08:42;16.80;70.60
16118;DHT22;8163;50.118;5.342;2022-07-29T03:11:10;16.80;70.80
16118;DHT22;8163;50.118;5.342;2022-07-29T03:13:38;16.70;70.80
16118;DHT22;8163;50.118;5.342;2022-07-29T03:16:07;16.70;71.00
16118;DHT22;8163;50.118;5.342;2022-07-29T03:18:35;16.70;71.20
16118;DHT22;8163;50.118;5.342;2022-07-29T03:21:04;16.70;71.20
16118;DHT22;8163;50.118;5.342;2022-07-29T03:23:31;16.70;71.50
16118;DHT22;8163;50.118;5.342;2022-07-29T03:25:59;16.60;71.40
16118;DHT22;8163;50.118;5.342;2022-07-29T03:28:26;16.60;71.40
16118;DHT22;8163;50.118;5.342;2022-07-29T03:30:54;16.50;71.40
16118;DHT22;8163;50.118;5.342;2022-07-29T03:33:21;16.50;71.50
16118;DHT22;8163;50.118;5.342;2022-07-29T03:35:48;16.50;71.70
16118;DHT22;8163;50.118;5.342;2022-07-29T03:38:17;16.50;71.70
16118;DHT22;8163;50.118;5.342;2022-07-29T03:40:48;16.50;71.90
16118;DHT22;8163;50.118;5.342;2022-07-29T03:43:17;16.40;72.00
16118;DHT22;8163;50.118;5.342;2022-07-29T03:45:47;16.30;72.00
16118;DHT22;8163;50.118;5.342;2022-07-29T03:48:19;16.30;72.20
16118;DHT22;8163;50.118;5.342;2022-07-29T03:50:48;16.30;72.20
16118;DHT22;8163;50.118;5.342;2022-07-29T03:53:17;16.20;72.30
16118;DHT22;8163;50.118;5.342;2022-07-29T03:55:46;16.20;72.50
16118;DHT22;8163;50.118;5.342;2022-07-29T03:58:14;16.20;72.80
16118;DHT22;8163;50.118;5.342;2022-07-29T04:00:43;16.20;72.80
16118;DHT22;8163;50.118;5.342;2022-07-29T04:03:11;16.20;72.80
16118;DHT22;8163;50.118;5.342;2022-07-29T04:05:38;16.20;73.00
16118;DHT22;8163;50.118;5.342;2022-07-29T04:08:05;16.20;73.00
16118;DHT22;8163;50.118;5.342;2022-07-29T04:10:34;16.20;73.10
16118;DHT22;8163;50.118;5.342;2022-07-29T04:13:01;16.10;73.10
16118;DHT22;8163;50.118;5.342;2022-07-29T04:15:29;16.10;73.20
16118;DHT22;8163;50.118;5.342;2022-07-29T04:17:56;16.10;73.40
16118;DHT22;8163;50.118;5.342;2022-07-29T04:20:25;16.10;73.60
16118;DHT22;8163;50.118;5.342;2022-07-29T04:22:52;16.10;73.70
16118;DHT22;8163;50.118;5.342;2022-07-29T04:25:19;16.20;74.00
16118;DHT22;8163;50.118;5.342;2022-07-29T04:27:48;16.20;74.20
16118;DHT22;8163;50.118;5.342;2022-07-29T04:30:28;16.20;74.30
16118;DHT22;8163;50.118;5.342;2022-07-29T04:32:57;16.30;74.40
16118;DHT22;8163;50.118;5.342;2022-07-29T04:35:24;16.30;74.40
16118;DHT22;8163;50.118;5.342;2022-07-29T04:37:51;16.40;74.40
16118;DHT22;8163;50.118;5.342;2022-07-29T04:40:18;16.40;74.20
16118;DHT22;8163;50.118;5.342;2022-07-29T04:42:45;16.40;74.10
16118;DHT22;8163;50.118;5.342;2022-07-29T04:45:14;16.50;74.10
16118;DHT22;8163;50.118;5.342;2022-07-29T04:47:41;16.50;74.00
16118;DHT22;8163;50.118;5.342;2022-07-29T04:50:09;16.50;73.80
16118;DHT22;8163;50.118;5.342;2022-07-29T04:52:36;17.50;74.00
16118;DHT22;8163;50.118;5.342;2022-07-29T04:55:04;18.30;73.20
16118;DHT22;8163;50.118;5.342;2022-07-29T04:57:31;18.90;73.20
16118;DHT22;8163;50.118;5.342;2022-07-29T05:00:02;19.10;72.80
16118;DHT22;8163;50.118;5.342;2022-07-29T05:02:30;19.40;72.60
16118;DHT22;8163;50.118;5.342;2022-07-29T05:04:57;20.00;72.10
16118;DHT22;8163;50.118;5.342;2022-07-29T05:07:24;20.50;71.30
16118;DHT22;8163;50.118;5.342;2022-07-29T05:09:51;21.10;70.80
16118;DHT22;8163;50.118;5.342;2022-07-29T05:12:19;21.70;70.60
16118;DHT22;8163;50.118;5.342;2022-07-29T05:14:46;22.10;70.00
16118;DHT22;8163;50.118;5.342;2022-07-29T05:17:13;22.50;69.50
16118;DHT22;8163;50.118;5.342;2022-07-29T05:19:41;23.00;68.90
16118;DHT22;8163;50.118;5.342;2022-07-29T05:22:08;23.30;68.00
16118;DHT22;8163;50.118;5.342;2022-07-29T05:24:35;23.70;67.40
16118;DHT22;8163;50.118;5.342;2022-07-29T05:27:03;24.20;66.70
16118;DHT22;8163;50.118;5.342;2022-07-29T05:29:30;24.70;66.00
16118;DHT22;8163;50.118;5.342;2022-07-29T05:31:57;25.10;65.00
16118;DHT22;8163;50.118;5.342;2022-07-29T05:34:25;25.60;64.10
16118;DHT22;8163;50.118;5.342;2022-07-29T05:36:53;26.00;63.40
16118;DHT22;8163;50.118;5.342;2022-07-29T05:39:20;26.50;62.60
16118;DHT22;8163;50.118;5.342;2022-07-29T05:41:48;26.80;61.50
16118;DHT22;8163;50.118;5.342;2022-07-29T05:44:15;27.30;60.80
16118;DHT22;8163;50.118;5.342;2022-07-29T05:46:42;27.60;59.90
16118;DHT22;8163;50.118;5.342;2022-07-29T05:49:09;28.00;59.10
16118;DHT22;8163;50.118;5.342;2022-07-29T05:51:36;28.40;58.40
16118;DHT22;8163;50.118;5.342;2022-07-29T05:54:05;28.80;57.70
16118;DHT22;8163;50.118;5.342;2022-07-29T05:56:32;29.10;56.70
16118;DHT22;8163;50.118;5.342;2022-07-29T05:58:59;29.40;56.30
16118;DHT22;8163;50.118;5.342;2022-07-29T06:01:26;29.60;55.50
16118;DHT22;8163;50.118;5.342;2022-07-29T06:03:53;30.00;54.80
16118;DHT22;8163;50.118;5.342;2022-07-29T06:06:20;30.30;54.10
16118;DHT22;8163;50.118;5.342;2022-07-29T06:08:50;30.60;53.30
16118;DHT22;8163;50.118;5.342;2022-07-29T06:11:18;31.00;52.50
16118;DHT22;8163;50.118;5.342;2022-07-29T06:13:45;31.30;51.90
16118;DHT22;8163;50.118;5.342;2022-07-29T06:16:13;31.50;51.40
16118;DHT22;8163;50.118;5.342;2022-07-29T06:18:39;30.90;50.90
16118;DHT22;8163;50.118;5.342;2022-07-29T06:21:10;31.00;50.70
16118;DHT22;8163;50.118;5.342;2022-07-29T06:23:37;31.20;50.10
16118;DHT22;8163;50.118;5.342;2022-07-29T06:26:07;31.50;50.00
16118;DHT22;8163;50.118;5.342;2022-07-29T06:28:36;31.80;49.50
16118;DHT22;8163;50.118;5.342;2022-07-29T06:31:05;32.20;49.30
16118;DHT22;8163;50.118;5.342;2022-07-29T06:33:36;32.40;48.70
16118;DHT22;8163;50.118;5.342;2022-07-29T06:36:04;32.50;48.50
16118;DHT22;8163;50.118;5.342;2022-07-29T06:38:31;32.60;47.70
16118;DHT22;8163;50.118;5.342;2022-07-29T06:40:59;32.70;47.40
16118;DHT22;8163;50.118;5.342;2022-07-29T06:43:31;33.00;47.10
16118;DHT22;8163;50.118;5.342;2022-07-29T06:46:06;33.20;46.70
16118;DHT22;8163;50.118;5.342;2022-07-29T06:48:34;33.40;46.40
16118;DHT22;8163;50.118;5.342;2022-07-29T06:51:02;33.60;46.40
16118;DHT22;8163;50.118;5.342;2022-07-29T06:53:31;33.90;46.20
16118;DHT22;8163;50.118;5.342;2022-07-29T06:56:00;34.20;45.90
16118;DHT22;8163;50.118;5.342;2022-07-29T06:58:27;34.30;45.60
16118;DHT22;8163;50.118;5.342;2022-07-29T07:00:56;34.10;45.40
16118;DHT22;8163;50.118;5.342;2022-07-29T07:03:25;34.50;45.20
16118;DHT22;8163;50.118;5.342;2022-07-29T07:05:52;34.70;44.50
16118;DHT22;8163;50.118;5.342;2022-07-29T07:08:24;35.00;44.40
16118;DHT22;8163;50.118;5.342;2022-07-29T07:10:53;35.30;43.90
16118;DHT22;8163;50.118;5.342;2022-07-29T07:13:21;35.60;43.50
16118;DHT22;8163;50.118;5.342;2022-07-29T07:15:49;35.80;43.20
16118;DHT22;8163;50.118;5.342;2022-07-29T07:18:18;35.90;42.80
16118;DHT22;8163;50.118;5.342;2022-07-29T07:20:47;36.10;42.60
16118;DHT22;8163;50.118;5.342;2022-07-29T07:23:14;36.20;42.90
16118;DHT22;8163;50.118;5.342;2022-07-29T07:25:41;36.30;41.90
16118;DHT22;8163;50.118;5.342;2022-07-29T07:28:08;36.40;41.50
16118;DHT22;8163;50.118;5.342;2022-07-29T07:30:38;35.80;41.60
16118;DHT22;8163;50.118;5.342;2022-07-29T07:33:06;34.70;41.80
16118;DHT22;8163;50.118;5.342;2022-07-29T07:35:33;34.10;42.30
16118;DHT22;8163;50.118;5.342;2022-07-29T07:38:01;34.00;42.90
16118;DHT22;8163;50.118;5.342;2022-07-29T07:40:28;34.20;42.80
16118;DHT22;8163;50.118;5.342;2022-07-29T07:42:55;34.00;42.60
16118;DHT22;8163;50.118;5.342;2022-07-29T07:45:22;34.10;42.80
16118;DHT22;8163;50.118;5.342;2022-07-29T07:47:50;35.20;42.40
16118;DHT22;8163;50.118;5.342;2022-07-29T07:50:18;35.90;42.00
16118;DHT22;8163;50.118;5.342;2022-07-29T07:52:48;35.90;42.00
16118;DHT22;8163;50.118;5.342;2022-07-29T07:55:17;35.20;42.20
16118;DHT22;8163;50.118;5.342;2022-07-29T07:57:45;35.10;42.20
16118;DHT22;8163;50.118;5.342;2022-07-29T08:00:14;34.70;42.00
16118;DHT22;8163;50.118;5.342;2022-07-29T08:02:42;34.60;42.00
16118;DHT22;8163;50.118;5.342;2022-07-29T08:05:11;34.50;42.00
16118;DHT22;8163;50.118;5.342;2022-07-29T08:07:45;34.70;41.80
16118;DHT22;8163;50.118;5.342;2022-07-29T08:10:13;34.30;41.90
16118;DHT22;8163;50.118;5.342;2022-07-29T08:12:44;34.10;42.00
16118;DHT22;8163;50.118;5.342;2022-07-29T08:15:12;34.50;42.10
16118;DHT22;8163;50.118;5.342;2022-07-29T08:17:41;34.90;42.00
16118;DHT22;8163;50.118;5.342;2022-07-29T08:20:09;35.10;41.50
16118;DHT22;8163;50.118;5.342;2022-07-29T08:22:36;35.30;41.60
16118;DHT22;8163;50.118;5.342;2022-07-29T08:25:04;35.60;41.50
16118;DHT22;8163;50.118;5.342;2022-07-29T08:27:31;35.80;41.10
16118;DHT22;8163;50.118;5.342;2022-07-29T08:33:00;36.80;40.10
16118;DHT22;8163;50.118;5.342;2022-07-29T08:35:28;36.90;40.20
16118;DHT22;8163;50.118;5.342;2022-07-29T08:37:56;37.10;39.70
16118;DHT22;8163;50.118;5.342;2022-07-29T08:40:23;37.10;39.70
16118;DHT22;8163;50.118;5.342;2022-07-29T08:42:51;36.90;39.50
16118;DHT22;8163;50.118;5.342;2022-07-29T08:45:20;36.30;39.50
16118;DHT22;8163;50.118;5.342;2022-07-29T08:47:49;36.10;39.50
16118;DHT22;8163;50.118;5.342;2022-07-29T08:50:17;36.20;39.70
16118;DHT22;8163;50.118;5.342;2022-07-29T08:52:44;36.30;39.50
16118;DHT22;8163;50.118;5.342;2022-07-29T08:55:15;36.10;39.50
16118;DHT22;8163;50.118;5.342;2022-07-29T08:57:43;36.20;39.60
16118;DHT22;8163;50.118;5.342;2022-07-29T09:00:11;36.00;39.60
16118;DHT22;8163;50.118;5.342;2022-07-29T09:02:40;36.00;39.70
16118;DHT22;8163;50.118;5.342;2022-07-29T09:05:08;35.80;39.60
16118;DHT22;8163;50.118;5.342;2022-07-29T09:07:39;36.00;39.70
16118;DHT22;8163;50.118;5.342;2022-07-29T09:46:59;37.20;40.60
16118;DHT22;8163;50.118;5.342;2022-07-29T09:49:32;37.20;39.80
16118;DHT22;8163;50.118;5.342;2022-07-29T09:52:16;37.20;39.00
16118;DHT22;8163;50.118;5.342;2022-07-29T09:54:53;37.20;38.20
16118;DHT22;8163;50.118;5.342;2022-07-29T09:57:45;37.40;38.10
16118;DHT22;8163;50.118;5.342;2022-07-29T10:00:41;37.20;37.70
16118;DHT22;8163;50.118;5.342;2022-07-29T10:03:25;37.30;37.50
16118;DHT22;8163;50.118;5.342;2022-07-29T10:06:30;37.60;37.70
16118;DHT22;8163;50.118;5.342;2022-07-29T10:12:07;37.30;37.40
16118;DHT22;8163;50.118;5.342;2022-07-29T10:14:37;37.30;37.40
16118;DHT22;8163;50.118;5.342;2022-07-29T10:17:06;37.10;37.10
16118;DHT22;8163;50.118;5.342;2022-07-29T10:19:35;37.00;36.90
16118;DHT22;8163;50.118;5.342;2022-07-29T10:22:04;37.20;37.10
16118;DHT22;8163;50.118;5.342;2022-07-29T10:24:32;37.50;36.80
16118;DHT22;8163;50.118;5.342;2022-07-29T10:27:06;37.60;36.60
16118;DHT22;8163;50.118;5.342;2022-07-29T10:29:33;37.80;36.60
16118;DHT22;8163;50.118;5.342;2022-07-29T10:32:20;37.80;36.40
16118;DHT22;8163;50.118;5.342;2022-07-29T10:35:11;37.80;36.20
16118;DHT22;8163;50.118;5.342;2022-07-29T10:37:52;37.70;35.90
16118;DHT22;8163;50.118;5.342;2022-07-29T10:40:30;37.60;35.90
16118;DHT22;8163;50.118;5.342;2022-07-29T10:43:24;37.70;36.20
16118;DHT22;8163;50.118;5.342;2022-07-29T10:45:56;38.10;36.10
16118;DHT22;8163;50.118;5.342;2022-07-29T10:48:23;38.30;35.70
16118;DHT22;8163;50.118;5.342;2022-07-29T10:50:57;38.20;35.60
16118;DHT22;8163;50.118;5.342;2022-07-29T10:53:46;38.30;35.60
16118;DHT22;8163;50.118;5.342;2022-07-29T10:56:34;38.50;35.50
16118;DHT22;8163;50.118;5.342;2022-07-29T10:59:22;38.30;35.60
16118;DHT22;8163;50.118;5.342;2022-07-29T11:01:52;37.70;35.60
16118;DHT22;8163;50.118;5.342;2022-07-29T11:07:21;36.80;35.90
16118;DHT22;8163;50.118;5.342;2022-07-29T11:10:22;36.30;36.20
16118;DHT22;8163;50.118;5.342;2022-07-29T11:12:49;36.20;36.60
16118;DHT22;8163;50.118;5.342;2022-07-29T11:15:19;36.20;36.70
16118;DHT22;8163;50.118;5.342;2022-07-29T11:18:06;36.40;37.00
16118;DHT22;8163;50.118;5.342;2022-07-29T11:20:36;36.40;36.90
16118;DHT22;8163;50.118;5.342;2022-07-29T11:23:21;36.40;37.00
16118;DHT22;8163;50.118;5.342;2022-07-29T11:26:16;36.40;37.10
16118;DHT22;8163;50.118;5.342;2022-07-29T11:29:01;36.20;37.30
16118;DHT22;8163;50.118;5.342;2022-07-29T11:31:35;35.90;37.20
16118;DHT22;8163;50.118;5.342;2022-07-29T11:34:16;35.70;37.40
16118;DHT22;8163;50.118;5.342;2022-07-29T11:37:13;35.70;37.90
16118;DHT22;8163;50.118;5.342;2022-07-29T11:39:43;36.10;37.60
16118;DHT22;8163;50.118;5.342;2022-07-29T11:42:37;36.40;37.50
16118;DHT22;8163;50.118;5.342;2022-07-29T11:45:06;36.90;37.40
16118;DHT22;8163;50.118;5.342;2022-07-29T11:47:36;37.00;37.20
16118;DHT22;8163;50.118;5.342;2022-07-29T11:50:05;36.90;36.80
16118;DHT22;8163;50.118;5.342;2022-07-29T11:52:34;36.90;37.20
16118;DHT22;8163;50.118;5.342;2022-07-29T11:55:05;36.50;36.70
16118;DHT22;8163;50.118;5.342;2022-07-29T11:57:34;36.10;37.00
16118;DHT22;8163;50.118;5.342;2022-07-29T12:00:03;35.80;37.00
16118;DHT22;8163;50.118;5.342;2022-07-29T12:02:39;36.10;37.30
16118;DHT22;8163;50.118;5.342;2022-07-29T12:05:08;36.20;37.20
16118;DHT22;8163;50.118;5.342;2022-07-29T12:07:37;36.50;37.10
16118;DHT22;8163;50.118;5.342;2022-07-29T12:10:07;36.10;37.20
16118;DHT22;8163;50.118;5.342;2022-07-29T12:12:35;35.50;37.20
16118;DHT22;8163;50.118;5.342;2022-07-29T12:15:16;35.00;37.40
16118;DHT22;8163;50.118;5.342;2022-07-29T12:17:46;34.50;37.90
16118;DHT22;8163;50.118;5.342;2022-07-29T12:20:14;34.60;38.30
16118;DHT22;8163;50.118;5.342;2022-07-29T12:22:48;34.90;38.60
16118;DHT22;8163;50.118;5.342;2022-07-29T12:25:16;35.40;38.70
16118;DHT22;8163;50.118;5.342;2022-07-29T12:27:44;35.50;38.60
16118;DHT22;8163;50.118;5.342;2022-07-29T12:30:14;35.10;38.30
16118;DHT22;8163;50.118;5.342;2022-07-29T12:32:44;34.90;38.30
16118;DHT22;8163;50.118;5.342;2022-07-29T12:35:13;34.60;38.50
16118;DHT22;8163;50.118;5.342;2022-07-29T12:37:43;34.20;38.60
16118;DHT22;8163;50.118;5.342;2022-07-29T12:40:12;34.30;38.90
16118;DHT22;8163;50.118;5.342;2022-07-29T12:42:41;34.20;39.30
16118;DHT22;8163;50.118;5.342;2022-07-29T12:45:09;34.30;39.40
16118;DHT22;8163;50.118;5.342;2022-07-29T12:47:51;34.20;39.40
16118;DHT22;8163;50.118;5.342;2022-07-29T12:50:18;34.30;39.50
16118;DHT22;8163;50.118;5.342;2022-07-29T12:52:45;34.10;39.50
16118;DHT22;8163;50.118;5.342;2022-07-29T12:55:13;34.40;39.60
16118;DHT22;8163;50.118;5.342;2022-07-29T12:57:51;34.40;39.60
16118;DHT22;8163;50.118;5.342;2022-07-29T13:00:22;34.10;39.40
16118;DHT22;8163;50.118;5.342;2022-07-29T13:02:55;33.80;39.40
16118;DHT22;8163;50.118;5.342;2022-07-29T13:05:22;34.00;39.80
16118;DHT22;8163;50.118;5.342;2022-07-29T13:07:50;33.60;39.70
16118;DHT22;8163;50.118;5.342;2022-07-29T13:10:18;33.30;40.00
16118;DHT22;8163;50.118;5.342;2022-07-29T13:13:07;33.60;40.50
16118;DHT22;8163;50.118;5.342;2022-07-29T13:15:36;34.10;40.70
16118;DHT22;8163;50.118;5.342;2022-07-29T13:18:05;34.40;40.50
16118;DHT22;8163;50.118;5.342;2022-07-29T13:20:32;34.60;40.00
16118;DHT22;8163;50.118;5.342;2022-07-29T13:23:00;34.00;39.80
16118;DHT22;8163;50.118;5.342;2022-07-29T13:25:28;33.30;39.80
16118;DHT22;8163;50.118;5.342;2022-07-29T13:27:56;33.10;40.30
16118;DHT22;8163;50.118;5.342;2022-07-29T13:30:24;32.80;40.30
16118;DHT22;8163;50.118;5.342;2022-07-29T13:32:52;32.50;40.60
16118;DHT22;8163;50.118;5.342;2022-07-29T13:35:20;32.90;40.80
16118;DHT22;8163;50.118;5.342;2022-07-29T13:37:47;33.40;40.90
16118;DHT22;8163;50.118;5.342;2022-07-29T13:40:25;33.70;40.80
16118;DHT22;8163;50.118;5.342;2022-07-29T13:42:55;33.80;40.80
16118;DHT22;8163;50.118;5.342;2022-07-29T13:45:24;33.90;40.80
16118;DHT22;8163;50.118;5.342;2022-07-29T13:47:53;33.90;40.60
16118;DHT22;8163;50.118;5.342;2022-07-29T13:50:21;33.70;40.60
16118;DHT22;8163;50.118;5.342;2022-07-29T13:52:48;33.40;40.50
16118;DHT22;8163;50.118;5.342;2022-07-29T13:55:16;33.20;40.30
16118;DHT22;8163;50.118;5.342;2022-07-29T13:57:43;33.10;40.30
16118;DHT22;8163;50.118;5.342;2022-07-29T14:00:11;33.10;40.60
16118;DHT22;8163;50.118;5.342;2022-07-29T14:02:40;32.90;40.90
16118;DHT22;8163;50.118;5.342;2022-07-29T14:05:08;32.90;40.90
16118;DHT22;8163;50.118;5.342;2022-07-29T14:10:44;32.40;41.50
16118;DHT22;8163;50.118;5.342;2022-07-29T14:13:11;32.20;41.60
16118;DHT22;8163;50.118;5.342;2022-07-29T14:15:38;31.90;41.70
16118;DHT22;8163;50.118;5.342;2022-07-29T14:18:07;31.70;42.00
16118;DHT22;8163;50.118;5.342;2022-07-29T14:20:34;31.80;42.30
16118;DHT22;8163;50.118;5.342;2022-07-29T14:23:01;31.70;42.50
16118;DHT22;8163;50.118;5.342;2022-07-29T14:25:28;31.80;42.60
16118;DHT22;8163;50.118;5.342;2022-07-29T14:27:55;31.50;42.70
16118;DHT22;8163;50.118;5.342;2022-07-29T14:30:22;31.30;42.70
16118;DHT22;8163;50.118;5.342;2022-07-29T14:32:49;31.10;42.80
16118;DHT22;8163;50.118;5.342;2022-07-29T14:35:17;31.20;42.90
16118;DHT22;8163;50.118;5.342;2022-07-29T14:37:44;31.30;43.00
16118;DHT22;8163;50.118;5.342;2022-07-29T14:40:11;31.30;43.00
16118;DHT22;8163;50.118;5.342;2022-07-29T14:42:39;31.30;43.00
16118;DHT22;8163;50.118;5.342;2022-07-29T14:45:07;31.20;43.00
16118;DHT22;8163;50.118;5.342;2022-07-29T14:47:35;31.00;42.80
16118;DHT22;8163;50.118;5.342;2022-07-29T14:52:49;31.10;42.70
16118;DHT22;8163;50.118;5.342;2022-07-29T14:55:22;30.90;42.80
16118;DHT22;8163;50.118;5.342;2022-07-29T14:57:49;30.80;43.00
16118;DHT22;8163;50.118;5.342;2022-07-29T15:00:17;30.70;43.10
16118;DHT22;8163;50.118;5.342;2022-07-29T15:02:45;30.60;43.30
16118;DHT22;8163;50.118;5.342;2022-07-29T15:05:12;30.40;43.40
16118;DHT22;8163;50.118;5.342;2022-07-29T15:07:39;30.30;43.30
16118;DHT22;8163;50.118;5.342;2022-07-29T15:10:07;30.40;43.40
16118;DHT22;8163;50.118;5.342;2022-07-29T15:12:35;30.50;43.40
16118;DHT22;8163;50.118;5.342;2022-07-29T15:15:02;30.70;43.60
16118;DHT22;8163;50.118;5.342;2022-07-29T15:17:29;30.80;43.40
16118;DHT22;8163;50.118;5.342;2022-07-29T15:19:56;30.80;43.30
16118;DHT22;8163;50.118;5.342;2022-07-29T15:22:23;30.70;43.50
16118;DHT22;8163;50.118;5.342;2022-07-29T15:24:50;30.50;43.40
16118;DHT22;8163;50.118;5.342;2022-07-29T15:27:19;30.50;43.60
16118;DHT22;8163;50.118;5.342;2022-07-29T15:29:47;30.40;43.70
16118;DHT22;8163;50.118;5.342;2022-07-29T15:32:14;30.30;43.90
16118;DHT22;8163;50.118;5.342;2022-07-29T15:34:41;30.20;44.10
16118;DHT22;8163;50.118;5.342;2022-07-29T15:37:08;30.20;44.20
16118;DHT22;8163;50.118;5.342;2022-07-29T15:39:36;30.30;44.30
16118;DHT22;8163;50.118;5.342;2022-07-29T15:42:04;30.30;44.30
16118;DHT22;8163;50.118;5.342;2022-07-29T15:44:33;30.40;44.80
16118;DHT22;8163;50.118;5.342;2022-07-29T15:47:00;30.40;44.00
16118;DHT22;8163;50.118;5.342;2022-07-29T15:49:29;30.40;43.90
16118;DHT22;8163;50.118;5.342;2022-07-29T15:51:58;30.40;43.70
16118;DHT22;8163;50.118;5.342;2022-07-29T15:54:26;30.40;43.70
16118;DHT22;8163;50.118;5.342;2022-07-29T15:56:53;30.30;43.60
16118;DHT22;8163;50.118;5.342;2022-07-29T15:59:20;30.30;43.80
16118;DHT22;8163;50.118;5.342;2022-07-29T16:01:49;30.30;43.90
16118;DHT22;8163;50.118;5.342;2022-07-29T16:04:16;30.20;43.90
16118;DHT22;8163;50.118;5.342;2022-07-29T16:06:44;30.00;43.90
16118;DHT22;8163;50.118;5.342;2022-07-29T16:09:12;29.90;43.90
16118;DHT22;8163;50.118;5.342;2022-07-29T16:11:39;29.90;44.10
16118;DHT22;8163;50.118;5.342;2022-07-29T16:14:06;29.90;44.10
16118;DHT22;8163;50.118;5.342;2022-07-29T16:16:34;29.80;44.20
16118;DHT22;8163;50.118;5.342;2022-07-29T16:19:02;29.70;44.10
16118;DHT22;8163;50.118;5.342;2022-07-29T16:21:30;29.60;44.00
16118;DHT22;8163;50.118;5.342;2022-07-29T16:23:57;29.50;43.90
16118;DHT22;8163;50.118;5.342;2022-07-29T16:26:25;29.40;44.00
16118;DHT22;8163;50.118;5.342;2022-07-29T16:28:52;29.30;44.00
16118;DHT22;8163;50.118;5.342;2022-07-29T16:31:20;29.20;44.10
16118;DHT22;8163;50.118;5.342;2022-07-29T16:33:47;29.10;44.20
16118;DHT22;8163;50.118;5.342;2022-07-29T16:36:16;29.00;44.40
16118;DHT22;8163;50.118;5.342;2022-07-29T16:38:43;28.90;44.60
16118;DHT22;8163;50.118;5.342;2022-07-29T16:41:10;28.80;44.60
16118;DHT22;8163;50.118;5.342;2022-07-29T16:43:37;28.70;44.60
16118;DHT22;8163;50.118;5.342;2022-07-29T16:46:06;28.60;44.70
16118;DHT22;8163;50.118;5.342;2022-07-29T16:48:33;28.60;44.70
16118;DHT22;8163;50.118;5.342;2022-07-29T16:51:00;28.50;44.90
16118;DHT22;8163;50.118;5.342;2022-07-29T16:53:28;28.40;45.00
16118;DHT22;8163;50.118;5.342;2022-07-29T16:55:56;28.40;45.20